createdAt,value
2023-03-22T00:06:32.747Z,8.0
2023-03-22T00:14:05.161Z,8.0
2023-03-22T00:21:37.486Z,8.0
2023-03-22T00:29:10.039Z,8.0
2023-03-22T00:36:42.581Z,8.0
2023-03-22T00:44:14.999Z,8.0
2023-03-22T00:51:47.546Z,9.3
2023-03-22T00:59:19.904Z,9.3
2023-03-22T01:06:52.301Z,9.3
2023-03-22T01:14:24.702Z,9.3
2023-03-22T01:21:57.137Z,9.3
2023-03-22T01:29:29.451Z,9.3
2023-03-22T01:37:01.769Z,9.3
2023-03-22T01:44:34.089Z,9.3
2023-03-22T01:52:06.488Z,8.9
2023-03-22T01:59:38.955Z,8.9
2023-03-22T02:07:11.290Z,8.9
2023-03-22T02:14:43.621Z,8.9
2023-03-22T02:22:16.017Z,8.9
2023-03-22T02:29:48.438Z,8.9
2023-03-22T02:37:20.857Z,8.9
2023-03-22T02:44:53.223Z,8.9
2023-03-22T02:52:25.599Z,9.1
2023-03-22T02:59:57.977Z,9.1
2023-03-22T03:07:30.324Z,9.1
2023-03-22T03:15:02.723Z,9.1
2023-03-22T03:22:35.073Z,9.1
2023-03-22T03:30:07.404Z,9.1
2023-03-22T03:37:39.729Z,9.1
2023-03-22T03:45:12.042Z,9.1
2023-03-22T03:52:44.392Z,9.0
2023-03-22T04:00:16.707Z,9.0
2023-03-22T04:07:49.112Z,9.0
2023-03-22T04:15:21.589Z,9.0
2023-03-22T04:22:53.950Z,9.0
2023-03-22T04:30:26.267Z,9.0
2023-03-22T04:37:58.579Z,9.0
2023-03-22T04:45:30.909Z,9.0
2023-03-22T04:53:03.250Z,9.5
2023-03-22T05:00:35.583Z,9.5
2023-03-22T05:08:07.991Z,9.5
2023-03-22T05:11:57.595Z,9.5
2023-03-22T05:12:45.019Z,9.5
2023-03-22T05:13:32.322Z,9.5
2023-03-22T05:14:19.797Z,9.5
2023-03-22T05:15:07.278Z,9.5
2023-03-22T05:15:54.751Z,9.5
2023-03-22T05:16:42.114Z,9.5
2023-03-22T05:17:29.415Z,9.5
2023-03-22T05:18:16.759Z,9.5
2023-03-22T05:19:04.059Z,9.5
2023-03-22T05:19:51.369Z,9.5
2023-03-22T05:20:38.964Z,9.5
2023-03-22T05:21:26.507Z,9.5
2023-03-22T05:22:13.814Z,9.5
2023-03-22T05:23:01.121Z,9.5
2023-03-22T05:23:50.998Z,9.5
2023-03-22T05:24:38.741Z,9.5
2023-03-22T05:25:26.046Z,9.5
2023-03-22T05:26:13.561Z,9.5
2023-03-22T05:27:00.951Z,9.5
2023-03-22T05:27:48.345Z,9.5
2023-03-22T05:28:35.749Z,9.5
2023-03-22T05:29:23.101Z,9.5
2023-03-22T05:30:10.506Z,9.5
2023-03-22T05:30:57.838Z,9.5
2023-03-22T05:31:45.174Z,9.5
2023-03-22T05:32:33.151Z,9.5
2023-03-22T05:33:20.496Z,9.5
2023-03-22T05:34:07.892Z,9.5
2023-03-22T05:34:55.216Z,9.5
2023-03-22T05:35:42.718Z,9.5
2023-03-22T05:36:30.075Z,9.5
2023-03-22T05:37:17.497Z,9.5
2023-03-22T05:38:04.863Z,9.5
2023-03-22T05:38:52.277Z,9.5
2023-03-22T05:39:39.695Z,9.5
2023-03-22T05:40:27.115Z,9.5
2023-03-22T05:41:14.461Z,9.5
2023-03-22T05:42:01.864Z,9.5
2023-03-22T05:42:49.292Z,11.6
2023-03-22T05:43:36.777Z,11.6
2023-03-22T05:44:24.086Z,11.6
2023-03-22T05:45:11.413Z,11.6
2023-03-22T05:45:58.732Z,11.6
2023-03-22T05:46:46.123Z,11.6
2023-03-22T05:47:33.505Z,11.6
2023-03-22T05:48:20.872Z,11.6
2023-03-22T05:49:08.775Z,11.6
2023-03-22T05:49:56.670Z,11.6
2023-03-22T05:50:44.333Z,11.6
2023-03-22T05:51:31.720Z,11.6
2023-03-22T05:52:19.143Z,11.6
2023-03-22T05:53:06.538Z,11.6
2023-03-22T05:53:53.872Z,11.6
2023-03-22T05:54:41.209Z,11.6
2023-03-22T05:55:28.645Z,11.6
2023-03-22T05:56:16.069Z,11.6
2023-03-22T05:57:03.437Z,11.6
2023-03-22T05:57:50.821Z,11.6
2023-03-22T05:58:38.152Z,11.6
2023-03-22T05:59:25.460Z,11.6
2023-03-22T06:00:12.981Z,11.6
2023-03-22T06:01:00.318Z,11.6
2023-03-22T06:01:47.660Z,11.6
2023-03-22T06:02:35.085Z,11.6
2023-03-22T06:03:22.490Z,11.6
2023-03-22T06:04:09.968Z,11.6
2023-03-22T06:04:57.316Z,11.6
2023-03-22T06:05:44.719Z,11.6
2023-03-22T06:06:32.120Z,11.6
2023-03-22T06:07:19.556Z,11.6
2023-03-22T06:08:06.843Z,11.6
2023-03-22T06:08:56.453Z,11.6
2023-03-22T06:09:49.031Z,11.6
2023-03-22T06:10:36.456Z,11.6
2023-03-22T06:11:23.889Z,11.6
2023-03-22T06:12:11.309Z,11.6
2023-03-22T06:12:58.642Z,11.6
2023-03-22T06:13:46.057Z,11.6
2023-03-22T06:14:33.384Z,11.6
2023-03-22T06:15:20.933Z,11.6
2023-03-22T06:16:08.500Z,11.6
2023-03-22T06:16:55.897Z,11.6
2023-03-22T06:17:43.332Z,11.6
2023-03-22T06:18:30.729Z,11.6
2023-03-22T06:19:18.066Z,11.6
2023-03-22T06:20:05.496Z,11.6
2023-03-22T06:20:52.881Z,11.6
2023-03-22T06:21:40.230Z,11.6
2023-03-22T06:22:27.717Z,11.6
2023-03-22T06:23:15.044Z,11.6
2023-03-22T06:24:02.481Z,11.6
2023-03-22T06:24:49.922Z,11.6
2023-03-22T06:25:37.352Z,11.6
2023-03-22T06:26:24.691Z,11.6
2023-03-22T06:27:12.130Z,11.6
2023-03-22T06:28:00.046Z,11.6
2023-03-22T06:28:47.499Z,11.6
2023-03-22T06:29:35.398Z,11.6
2023-03-22T06:30:22.931Z,11.6
2023-03-22T06:31:10.461Z,11.6
2023-03-22T06:31:57.926Z,11.6
2023-03-22T06:32:45.283Z,11.6
2023-03-22T06:33:32.617Z,11.6
2023-03-22T06:34:19.989Z,11.6
2023-03-22T06:35:07.437Z,11.6
2023-03-22T06:35:54.975Z,11.6
2023-03-22T06:36:42.397Z,11.6
2023-03-22T06:37:29.767Z,11.6
2023-03-22T06:38:17.125Z,11.6
2023-03-22T06:39:04.697Z,11.6
2023-03-22T06:39:52.043Z,11.6
2023-03-22T06:40:39.809Z,11.6
2023-03-22T06:41:27.365Z,11.6
2023-03-22T06:42:14.770Z,16.2
2023-03-22T06:43:05.615Z,16.2
2023-03-22T06:43:54.211Z,16.2
2023-03-22T06:44:41.707Z,16.2
2023-03-22T06:45:29.051Z,16.2
2023-03-22T06:46:16.433Z,16.2
2023-03-22T06:47:03.830Z,16.2
2023-03-22T06:47:51.265Z,16.2
2023-03-22T06:48:38.731Z,16.2
2023-03-22T06:49:26.559Z,16.2
2023-03-22T06:50:14.129Z,16.2
2023-03-22T06:51:02.106Z,16.2
2023-03-22T06:51:49.467Z,16.2
2023-03-22T06:52:36.874Z,16.2
2023-03-22T06:53:26.818Z,16.2
2023-03-22T06:54:14.206Z,16.2
2023-03-22T06:55:01.652Z,16.2
2023-03-22T06:55:48.981Z,16.2
2023-03-22T06:56:36.285Z,16.2
2023-03-22T06:57:23.946Z,16.2
2023-03-22T06:58:11.277Z,16.2
2023-03-22T06:58:58.612Z,16.2
2023-03-22T06:59:46.105Z,16.2
2023-03-22T07:00:33.453Z,16.2
2023-03-22T07:01:20.972Z,16.2
2023-03-22T07:02:08.430Z,16.2
2023-03-22T07:02:55.887Z,16.2
2023-03-22T07:03:43.239Z,16.2
2023-03-22T07:04:30.681Z,16.2
2023-03-22T07:05:18.284Z,16.2
2023-03-22T07:06:05.668Z,16.2
2023-03-22T07:06:53.019Z,16.2
2023-03-22T07:07:40.379Z,16.2
2023-03-22T07:08:27.785Z,16.2
2023-03-22T07:09:15.206Z,16.2
2023-03-22T07:10:02.542Z,16.2
2023-03-22T07:10:49.879Z,16.2
2023-03-22T07:11:37.298Z,16.2
2023-03-22T07:12:24.637Z,16.2
2023-03-22T07:13:12.002Z,16.2
2023-03-22T07:13:59.436Z,16.2
2023-03-22T07:14:46.720Z,16.2
2023-03-22T07:15:34.150Z,16.2
2023-03-22T07:16:21.756Z,16.2
2023-03-22T07:17:09.220Z,16.2
2023-03-22T07:17:56.552Z,16.2
2023-03-22T07:18:43.885Z,16.2
2023-03-22T07:19:31.210Z,16.2
2023-03-22T07:20:18.545Z,16.2
2023-03-22T07:21:05.883Z,16.2
2023-03-22T07:21:53.230Z,16.2
2023-03-22T07:22:40.666Z,16.2
2023-03-22T07:23:28.006Z,16.2
2023-03-22T07:24:15.655Z,16.2
2023-03-22T07:25:03.150Z,16.2
2023-03-22T07:25:50.471Z,16.2
2023-03-22T07:26:37.826Z,16.2
2023-03-22T07:27:25.167Z,16.2
2023-03-22T07:28:12.501Z,16.2
2023-03-22T07:28:59.904Z,16.2
2023-03-22T07:29:47.282Z,16.2
2023-03-22T07:30:34.598Z,16.2
2023-03-22T07:31:21.997Z,16.2
2023-03-22T07:32:09.405Z,16.2
2023-03-22T07:32:56.754Z,16.2
2023-03-22T07:33:44.204Z,16.2
2023-03-22T07:34:31.538Z,16.2
2023-03-22T07:35:18.996Z,16.2
2023-03-22T07:36:07.214Z,16.2
2023-03-22T07:36:54.632Z,16.2
2023-03-22T07:37:42.661Z,16.2
2023-03-22T07:38:30.008Z,16.2
2023-03-22T07:39:17.313Z,16.2
2023-03-22T07:40:04.647Z,16.2
2023-03-22T07:40:51.957Z,16.2
2023-03-22T07:41:39.320Z,16.2
2023-03-22T07:42:26.637Z,15.6
2023-03-22T07:43:14.061Z,15.6
2023-03-22T07:44:16.722Z,15.6
2023-03-22T07:44:58.752Z,15.6
2023-03-22T07:45:46.117Z,15.6
2023-03-22T07:46:33.551Z,15.6
2023-03-22T07:47:37.820Z,15.6
2023-03-22T07:48:18.399Z,15.6
2023-03-22T07:49:05.783Z,15.6
2023-03-22T07:49:53.136Z,15.6
2023-03-22T07:50:40.851Z,15.6
2023-03-22T07:51:28.390Z,15.6
2023-03-22T07:52:15.932Z,15.6
2023-03-22T07:53:03.287Z,15.6
2023-03-22T07:53:50.642Z,15.6
2023-03-22T07:54:38.154Z,15.6
2023-03-22T07:55:25.737Z,15.6
2023-03-22T07:56:13.101Z,15.6
2023-03-22T07:57:00.537Z,15.6
2023-03-22T07:57:47.881Z,15.6
2023-03-22T07:58:35.429Z,15.6
2023-03-22T07:59:22.798Z,15.6
2023-03-22T08:00:10.450Z,15.6
2023-03-22T08:00:59.131Z,15.6
2023-03-22T08:01:46.760Z,15.6
2023-03-22T08:02:34.655Z,15.6
2023-03-22T08:03:22.169Z,15.6
2023-03-22T08:04:09.944Z,15.6
2023-03-22T08:04:57.628Z,15.6
2023-03-22T08:05:45.079Z,15.6
2023-03-22T08:06:32.405Z,15.6
2023-03-22T08:07:19.809Z,15.6
2023-03-22T08:08:07.475Z,15.6
2023-03-22T08:08:54.870Z,15.6
2023-03-22T08:09:42.278Z,15.6
2023-03-22T08:10:29.705Z,15.6
2023-03-22T08:11:17.953Z,15.6
2023-03-22T08:12:05.259Z,15.6
2023-03-22T08:12:52.695Z,15.6
2023-03-22T08:13:40.046Z,15.6
2023-03-22T08:14:36.180Z,15.6
2023-03-22T08:15:24.455Z,15.6
2023-03-22T08:16:11.865Z,15.6
2023-03-22T08:16:59.232Z,15.6
2023-03-22T08:17:46.648Z,15.6
2023-03-22T08:18:33.965Z,15.6
2023-03-22T08:19:21.385Z,15.6
2023-03-22T08:20:08.761Z,15.6
2023-03-22T08:20:56.369Z,15.6
2023-03-22T08:21:43.936Z,15.6
2023-03-22T08:22:31.272Z,15.6
2023-03-22T08:23:21.278Z,15.6
2023-03-22T08:24:09.958Z,15.6
2023-03-22T08:24:57.384Z,15.6
2023-03-22T08:25:45.178Z,15.6
2023-03-22T08:26:32.673Z,15.6
2023-03-22T08:27:20.072Z,15.6
2023-03-22T08:28:07.503Z,15.6
2023-03-22T08:28:54.872Z,15.6
2023-03-22T08:29:42.281Z,15.6
2023-03-22T08:30:29.761Z,15.6
2023-03-22T08:31:17.300Z,15.6
2023-03-22T08:32:04.804Z,15.6
2023-03-22T08:32:52.224Z,15.6
2023-03-22T08:33:39.538Z,15.6
2023-03-22T08:34:26.971Z,15.6
2023-03-22T08:35:14.313Z,15.6
2023-03-22T08:36:01.661Z,15.6
2023-03-22T08:36:49.010Z,15.6
2023-03-22T08:37:36.391Z,15.6
2023-03-22T08:38:23.901Z,15.6
2023-03-22T08:39:11.250Z,15.6
2023-03-22T08:39:58.592Z,15.6
2023-03-22T08:40:46.016Z,15.6
2023-03-22T08:41:33.350Z,15.6
2023-03-22T08:42:20.962Z,13.0
2023-03-22T08:43:08.294Z,13.0
2023-03-22T08:43:55.873Z,13.0
2023-03-22T08:44:43.300Z,13.0
2023-03-22T08:45:31.176Z,13.0
2023-03-22T08:46:18.532Z,13.0
2023-03-22T08:47:06.240Z,13.0
2023-03-22T08:47:53.725Z,13.0
2023-03-22T08:48:41.054Z,13.0
2023-03-22T08:49:28.466Z,13.0
2023-03-22T08:50:16.007Z,13.0
2023-03-22T08:51:03.785Z,13.0
2023-03-22T08:51:51.144Z,13.0
2023-03-22T08:52:41.484Z,13.0
2023-03-22T08:53:28.996Z,13.0
2023-03-22T08:54:16.327Z,13.0
2023-03-22T08:55:03.655Z,13.0
2023-03-22T08:55:50.997Z,13.0
2023-03-22T08:56:38.471Z,13.0
2023-03-22T08:57:25.968Z,13.0
2023-03-22T08:58:13.472Z,13.0
2023-03-22T08:59:00.837Z,13.0
2023-03-22T08:59:48.223Z,13.0
2023-03-22T09:00:47.708Z,13.0
2023-03-22T09:01:33.434Z,13.0
2023-03-22T09:02:20.855Z,13.0
2023-03-22T09:03:08.481Z,13.0
2023-03-22T09:03:55.908Z,13.0
2023-03-22T09:04:43.424Z,13.0
2023-03-22T09:05:30.792Z,13.0
2023-03-22T09:06:19.108Z,13.0
2023-03-22T09:07:06.582Z,13.0
2023-03-22T09:07:53.902Z,13.0
2023-03-22T09:08:41.378Z,13.0
2023-03-22T09:09:28.698Z,13.0
2023-03-22T09:10:16.358Z,13.0
2023-03-22T09:11:04.044Z,13.0
2023-03-22T09:11:51.941Z,13.0
2023-03-22T09:12:39.385Z,13.0
2023-03-22T09:13:27.144Z,13.0
2023-03-22T09:14:14.453Z,13.0
2023-03-22T09:15:01.776Z,13.0
2023-03-22T09:15:49.256Z,13.0
2023-03-22T09:16:37.092Z,13.0
2023-03-22T09:17:24.579Z,13.0
2023-03-22T09:18:11.976Z,13.0
2023-03-22T09:18:59.417Z,13.0
2023-03-22T09:19:46.812Z,13.0
2023-03-22T09:20:34.228Z,13.0
2023-03-22T09:21:22.181Z,13.0
2023-03-22T09:22:09.605Z,13.0
2023-03-22T09:22:57.517Z,13.0
2023-03-22T09:23:44.950Z,13.0
2023-03-22T09:24:32.288Z,13.0
2023-03-22T09:25:19.643Z,13.0
2023-03-22T09:26:07.151Z,13.0
2023-03-22T09:26:54.517Z,13.0
2023-03-22T09:27:41.881Z,13.0
2023-03-22T09:28:29.456Z,13.0
2023-03-22T09:29:16.988Z,13.0
2023-03-22T09:30:04.307Z,13.0
2023-03-22T09:30:51.709Z,13.0
2023-03-22T09:31:39.118Z,13.0
2023-03-22T09:32:26.517Z,13.0
2023-03-22T09:33:13.926Z,13.0
2023-03-22T09:34:01.338Z,13.0
2023-03-22T09:34:48.667Z,13.0
2023-03-22T09:35:36.092Z,13.0
2023-03-22T09:36:23.520Z,13.0
2023-03-22T09:37:10.848Z,13.0
2023-03-22T09:37:58.258Z,13.0
2023-03-22T09:38:45.596Z,13.0
2023-03-22T09:39:33.030Z,13.0
2023-03-22T09:40:20.436Z,13.0
2023-03-22T09:41:07.981Z,13.0
2023-03-22T09:41:55.324Z,13.0
2023-03-22T09:42:42.725Z,12.8
2023-03-22T09:43:32.149Z,12.8
2023-03-22T09:44:20.617Z,12.8
2023-03-22T09:45:08.323Z,12.8
2023-03-22T09:45:55.968Z,12.8
2023-03-22T09:46:43.398Z,12.8
2023-03-22T09:47:42.229Z,12.8
2023-03-22T09:48:28.847Z,12.8
2023-03-22T09:49:16.604Z,12.8
2023-03-22T09:50:03.907Z,12.8
2023-03-22T09:50:51.361Z,12.8
2023-03-22T09:51:38.837Z,12.8
2023-03-22T09:52:26.590Z,12.8
2023-03-22T09:53:14.187Z,12.8
2023-03-22T09:54:01.611Z,12.8
2023-03-22T09:54:50.433Z,12.8
2023-03-22T09:55:38.993Z,12.8
2023-03-22T09:56:26.503Z,12.8
2023-03-22T09:57:13.969Z,12.8
2023-03-22T09:58:01.356Z,12.8
2023-03-22T09:58:48.885Z,12.8
2023-03-22T09:59:36.370Z,12.8
2023-03-22T10:00:23.793Z,12.8
2023-03-22T10:01:11.212Z,12.8
2023-03-22T10:01:58.810Z,12.8
2023-03-22T10:02:46.321Z,12.8
2023-03-22T10:03:33.796Z,12.8
2023-03-22T10:04:21.197Z,12.8
2023-03-22T10:05:08.628Z,12.8
2023-03-22T10:05:56.078Z,12.8
2023-03-22T10:06:43.387Z,12.8
2023-03-22T10:07:30.841Z,12.8
2023-03-22T10:08:18.282Z,12.8
2023-03-22T10:09:05.627Z,12.8
2023-03-22T10:09:53.129Z,12.8
2023-03-22T10:10:40.480Z,12.8
2023-03-22T10:11:27.975Z,12.8
2023-03-22T10:12:15.357Z,12.8
2023-03-22T10:13:02.999Z,12.8
2023-03-22T10:13:50.430Z,12.8
2023-03-22T10:14:37.811Z,12.8
2023-03-22T10:15:25.241Z,12.8
2023-03-22T10:16:12.660Z,12.8
2023-03-22T10:17:00.033Z,12.8
2023-03-22T10:17:47.449Z,12.8
2023-03-22T10:18:34.904Z,12.8
2023-03-22T10:19:22.249Z,12.8
2023-03-22T10:20:09.579Z,12.8
2023-03-22T10:20:56.924Z,12.8
2023-03-22T10:21:44.457Z,12.8
2023-03-22T10:22:31.873Z,12.8
2023-03-22T10:23:19.202Z,12.8
2023-03-22T10:24:06.525Z,12.8
2023-03-22T10:24:54.331Z,12.8
2023-03-22T10:25:42.336Z,12.8
2023-03-22T10:26:29.962Z,12.8
2023-03-22T10:27:17.305Z,12.8
2023-03-22T10:28:04.646Z,12.8
2023-03-22T10:28:52.228Z,12.8
2023-03-22T10:29:39.551Z,12.8
2023-03-22T10:30:26.941Z,12.8
2023-03-22T10:31:14.388Z,12.8
2023-03-22T10:32:01.836Z,12.8
2023-03-22T10:32:57.439Z,12.8
2023-03-22T10:33:45.599Z,12.8
2023-03-22T10:34:33.009Z,12.8
2023-03-22T10:35:20.431Z,12.8
2023-03-22T10:36:07.878Z,12.8
2023-03-22T10:36:55.190Z,12.8
2023-03-22T10:37:42.566Z,12.8
2023-03-22T10:38:29.923Z,12.8
2023-03-22T10:39:17.367Z,12.8
2023-03-22T10:40:04.681Z,12.8
2023-03-22T10:40:52.015Z,12.8
2023-03-22T10:41:39.554Z,12.8
2023-03-22T10:42:26.898Z,12.6
2023-03-22T10:43:14.210Z,12.6
2023-03-22T10:44:01.704Z,12.6
2023-03-22T10:44:49.215Z,12.6
2023-03-22T10:45:36.566Z,12.6
2023-03-22T10:46:24.209Z,12.6
2023-03-22T10:47:11.873Z,12.6
2023-03-22T10:47:59.366Z,12.6
2023-03-22T10:48:46.711Z,12.6
2023-03-22T10:49:34.482Z,12.6
2023-03-22T10:50:21.894Z,12.6
2023-03-22T10:51:09.625Z,12.6
2023-03-22T10:51:57.247Z,12.6
2023-03-22T10:52:44.733Z,12.6
2023-03-22T10:53:32.421Z,12.6
2023-03-22T10:54:20.001Z,12.6
2023-03-22T10:55:07.373Z,12.6
2023-03-22T10:55:55.062Z,12.6
2023-03-22T10:56:43.891Z,12.6
2023-03-22T10:58:18.973Z,12.6
2023-03-22T10:59:06.557Z,12.6
2023-03-22T10:59:54.122Z,12.6
2023-03-22T11:00:42.529Z,12.6
2023-03-22T11:01:30.048Z,12.6
2023-03-22T11:02:17.680Z,12.6
2023-03-22T11:03:05.425Z,12.6
2023-03-22T11:03:52.878Z,12.6
2023-03-22T11:04:40.247Z,12.6
2023-03-22T11:05:27.618Z,12.6
2023-03-22T11:06:15.204Z,12.6
2023-03-22T11:07:02.741Z,12.6
2023-03-22T11:07:50.021Z,12.6
2023-03-22T11:08:37.329Z,12.6
2023-03-22T11:09:24.837Z,12.6
2023-03-22T11:10:12.337Z,12.6
2023-03-22T11:11:00.000Z,12.6
2023-03-22T11:11:47.321Z,12.6
2023-03-22T11:12:34.637Z,12.6
2023-03-22T11:13:22.055Z,12.6
2023-03-22T11:14:09.460Z,12.6
2023-03-22T11:14:56.805Z,12.6
2023-03-22T11:15:44.222Z,12.6
2023-03-22T11:16:31.613Z,12.6
2023-03-22T11:17:18.961Z,12.6
2023-03-22T11:18:06.366Z,12.6
2023-03-22T11:18:53.806Z,12.6
2023-03-22T11:19:41.636Z,12.6
2023-03-22T11:20:30.983Z,12.6
2023-03-22T11:21:19.261Z,12.6
2023-03-22T11:22:06.797Z,12.6
2023-03-22T11:22:54.128Z,12.6
2023-03-22T11:23:41.527Z,12.6
2023-03-22T11:24:28.963Z,12.6
2023-03-22T11:25:16.279Z,12.6
2023-03-22T11:26:03.613Z,12.6
2023-03-22T11:26:50.950Z,12.6
2023-03-22T11:27:38.377Z,12.6
2023-03-22T11:28:25.745Z,12.6
2023-03-22T11:29:13.087Z,12.6
2023-03-22T11:30:00.461Z,12.6
2023-03-22T11:30:47.763Z,12.6
2023-03-22T11:31:35.115Z,12.6
2023-03-22T11:32:22.590Z,12.6
2023-03-22T11:33:10.305Z,12.6
2023-03-22T11:33:57.671Z,12.6
2023-03-22T11:34:45.128Z,12.6
2023-03-22T11:35:32.548Z,12.6
2023-03-22T11:36:19.972Z,12.6
2023-03-22T11:37:07.500Z,12.6
2023-03-22T11:37:54.877Z,12.6
2023-03-22T11:38:42.289Z,12.6
2023-03-22T11:39:29.720Z,12.6
2023-03-22T11:40:17.498Z,12.6
2023-03-22T11:41:04.887Z,12.6
2023-03-22T11:41:52.352Z,12.6
2023-03-22T11:42:39.773Z,9.3
2023-03-22T11:43:27.196Z,9.3
2023-03-22T11:44:14.605Z,9.3
2023-03-22T11:45:02.049Z,9.3
2023-03-22T11:45:49.761Z,9.3
2023-03-22T11:46:37.692Z,9.3
2023-03-22T11:47:25.088Z,9.3
2023-03-22T11:48:12.554Z,9.3
2023-03-22T11:49:01.304Z,9.3
2023-03-22T11:49:48.871Z,9.3
2023-03-22T11:50:36.198Z,9.3
2023-03-22T11:51:23.636Z,9.3
2023-03-22T11:52:10.956Z,9.3
2023-03-22T11:52:58.481Z,9.3
2023-03-22T11:53:45.815Z,9.3
2023-03-22T11:54:33.185Z,9.3
2023-03-22T11:55:20.555Z,9.3
2023-03-22T11:56:07.918Z,9.3
2023-03-22T11:56:55.245Z,9.3
2023-03-22T11:57:42.740Z,9.3
2023-03-22T11:58:30.111Z,9.3
2023-03-22T11:59:17.453Z,9.3
2023-03-22T12:00:04.814Z,9.3
2023-03-22T12:00:52.206Z,9.3
2023-03-22T12:01:39.550Z,9.3
2023-03-22T12:02:27.086Z,9.3
2023-03-22T12:03:14.754Z,9.3
2023-03-22T12:04:02.239Z,9.3
2023-03-22T12:04:49.688Z,9.3
2023-03-22T12:05:37.021Z,9.3
2023-03-22T12:06:24.489Z,9.3
2023-03-22T12:07:12.049Z,9.3
2023-03-22T12:07:59.461Z,9.3
2023-03-22T12:08:47.426Z,9.3
2023-03-22T12:09:35.336Z,9.3
2023-03-22T12:10:22.767Z,9.3
2023-03-22T12:11:10.174Z,9.3
2023-03-22T12:11:57.576Z,9.3
2023-03-22T12:12:45.072Z,9.3
2023-03-22T12:13:32.657Z,9.3
2023-03-22T12:14:20.122Z,9.3
2023-03-22T12:15:07.451Z,9.3
2023-03-22T12:15:55.178Z,9.3
2023-03-22T12:16:42.915Z,9.3
2023-03-22T12:17:30.413Z,9.3
2023-03-22T12:18:17.926Z,9.3
2023-03-22T12:19:06.063Z,9.3
2023-03-22T12:19:53.473Z,9.3
2023-03-22T12:20:41.032Z,9.3
2023-03-22T12:21:28.743Z,9.3
2023-03-22T12:22:16.708Z,9.3
2023-03-22T12:23:04.065Z,9.3
2023-03-22T12:23:51.418Z,9.3
2023-03-22T12:24:38.759Z,9.3
2023-03-22T12:25:26.092Z,9.3
2023-03-22T12:26:13.436Z,9.3
2023-03-22T12:27:00.870Z,9.3
2023-03-22T12:27:48.278Z,9.3
2023-03-22T12:28:35.607Z,9.3
2023-03-22T12:29:22.965Z,9.3
2023-03-22T12:30:10.424Z,9.3
2023-03-22T12:30:57.799Z,9.3
2023-03-22T12:31:45.233Z,9.3
2023-03-22T12:32:32.708Z,9.3
2023-03-22T12:33:20.134Z,9.3
2023-03-22T12:34:07.575Z,9.3
2023-03-22T12:34:57.954Z,9.3
2023-03-22T12:35:52.240Z,9.3
2023-03-22T12:36:39.610Z,9.3
2023-03-22T12:37:26.981Z,9.3
2023-03-22T12:38:14.346Z,9.3
2023-03-22T12:39:01.767Z,9.3
2023-03-22T12:39:49.225Z,9.3
2023-03-22T12:40:36.612Z,9.3
2023-03-22T12:41:24.122Z,9.3
2023-03-22T12:42:11.627Z,8.3
2023-03-22T12:43:00.344Z,8.3
2023-03-22T12:43:47.921Z,8.3
2023-03-22T12:44:35.296Z,8.3
2023-03-22T12:45:22.771Z,8.3
2023-03-22T12:46:10.220Z,8.3
2023-03-22T12:46:57.809Z,8.3
2023-03-22T12:47:45.356Z,8.3
2023-03-22T12:48:32.821Z,8.3
2023-03-22T12:49:20.275Z,8.3
2023-03-22T12:50:07.763Z,8.3
2023-03-22T12:50:55.095Z,8.3
2023-03-22T12:51:42.413Z,8.3
2023-03-22T12:52:34.777Z,8.3
2023-03-22T12:53:27.026Z,8.3
2023-03-22T12:54:14.429Z,8.3
2023-03-22T12:55:01.926Z,8.3
2023-03-22T12:55:49.236Z,8.3
2023-03-22T12:56:36.641Z,8.3
2023-03-22T12:57:23.958Z,8.3
2023-03-22T12:58:11.288Z,8.3
2023-03-22T12:58:58.689Z,8.3
2023-03-22T12:59:46.042Z,8.3
2023-03-22T13:00:33.409Z,8.3
2023-03-22T13:01:20.848Z,8.3
2023-03-22T13:02:08.216Z,8.3
2023-03-22T13:02:55.613Z,8.3
2023-03-22T13:03:43.091Z,8.3
2023-03-22T13:04:30.504Z,8.3
2023-03-22T13:05:17.855Z,8.3
2023-03-22T13:06:05.333Z,8.3
2023-03-22T13:06:52.652Z,8.3
2023-03-22T13:07:40.583Z,8.3
2023-03-22T13:08:27.896Z,8.3
2023-03-22T13:09:15.411Z,8.3
2023-03-22T13:10:02.780Z,8.3
2023-03-22T13:10:50.101Z,8.3
2023-03-22T13:11:37.498Z,8.3
2023-03-22T13:12:24.812Z,8.3
2023-03-22T13:13:12.459Z,8.3
2023-03-22T13:14:00.187Z,8.3
2023-03-22T13:14:47.555Z,8.3
2023-03-22T13:15:41.894Z,8.3
2023-03-22T13:16:30.590Z,8.3
2023-03-22T13:17:17.951Z,8.3
2023-03-22T13:18:05.630Z,8.3
2023-03-22T13:18:52.978Z,8.3
2023-03-22T13:19:40.292Z,8.3
2023-03-22T13:20:27.975Z,8.3
2023-03-22T13:21:15.451Z,8.3
2023-03-22T14:52:44.265Z,6.1
2023-03-22T14:53:31.744Z,6.1
2023-03-22T14:54:19.264Z,6.1
2023-03-22T14:55:06.727Z,6.1
2023-03-22T14:55:54.240Z,6.1
2023-03-22T14:56:41.852Z,6.1
2023-03-22T14:57:35.124Z,6.1
2023-03-22T14:58:24.445Z,6.1
2023-03-22T14:59:11.947Z,6.1
2023-03-22T14:59:59.378Z,6.1
2023-03-22T15:00:46.868Z,6.1
2023-03-22T15:01:34.352Z,6.1
2023-03-22T15:02:21.817Z,6.1
2023-03-22T15:03:10.198Z,6.1
2023-03-22T15:03:58.918Z,6.1
2023-03-22T15:04:46.365Z,6.1
2023-03-22T15:05:35.089Z,6.1
2023-03-22T15:06:22.662Z,6.1
2023-03-22T15:07:10.406Z,6.1
2023-03-22T15:07:57.938Z,6.1
2023-03-22T15:08:45.366Z,6.1
2023-03-22T15:09:32.799Z,6.1
2023-03-22T15:10:20.242Z,6.1
2023-03-22T15:11:07.673Z,6.1
2023-03-22T15:11:55.155Z,6.1
2023-03-22T15:12:42.598Z,6.1
2023-03-22T15:13:30.042Z,6.1
2023-03-22T15:14:18.943Z,6.1
2023-03-22T15:15:07.341Z,6.1
2023-03-22T15:15:54.776Z,6.1
2023-03-22T15:16:42.256Z,6.1
2023-03-22T15:17:29.683Z,6.1
2023-03-22T15:18:17.094Z,6.1
2023-03-22T15:19:04.523Z,6.1
2023-03-22T15:19:51.943Z,6.1
2023-03-22T15:20:39.528Z,6.1
2023-03-22T15:21:27.276Z,6.1
2023-03-22T15:22:15.637Z,6.1
2023-03-22T15:23:03.233Z,6.1
2023-03-22T15:23:50.659Z,5.7
2023-03-22T15:24:38.108Z,5.7
2023-03-22T15:25:25.518Z,5.7
2023-03-22T15:26:13.070Z,5.7
2023-03-22T15:27:00.587Z,5.7
2023-03-22T15:27:48.061Z,5.7
2023-03-22T15:28:35.730Z,5.7
2023-03-22T15:29:23.325Z,5.7
2023-03-22T15:30:10.870Z,5.7
2023-03-22T15:30:58.320Z,5.7
2023-03-22T15:31:45.771Z,5.7
2023-03-22T15:32:33.366Z,5.7
2023-03-22T15:33:21.222Z,5.7
2023-03-22T15:34:08.977Z,5.7
2023-03-22T15:34:56.432Z,5.7
2023-03-22T15:35:44.143Z,5.7
2023-03-22T15:36:31.789Z,5.7
2023-03-22T15:37:19.220Z,5.7
2023-03-22T15:38:06.632Z,5.7
2023-03-22T15:38:54.086Z,5.7
2023-03-22T15:39:41.528Z,5.7
2023-03-22T15:40:28.936Z,5.7
2023-03-22T15:41:16.356Z,5.7
2023-03-22T15:42:03.794Z,5.7
2023-03-22T15:42:51.213Z,5.7
2023-03-22T15:43:38.627Z,5.7
2023-03-22T15:44:26.082Z,5.7
2023-03-22T15:45:13.511Z,5.7
2023-03-22T15:46:00.972Z,5.7
2023-03-22T15:46:48.436Z,5.7
2023-03-22T15:47:35.858Z,5.7
2023-03-22T15:48:23.301Z,5.7
2023-03-22T15:49:10.709Z,5.7
2023-03-22T15:49:58.171Z,5.7
2023-03-22T15:50:45.626Z,5.7
2023-03-22T15:51:33.043Z,5.7
2023-03-22T15:52:20.488Z,5.7
2023-03-22T15:53:08.033Z,5.7
2023-03-22T15:53:55.505Z,5.7
2023-03-22T15:54:43.016Z,5.7
2023-03-22T15:55:30.494Z,5.7
2023-03-22T15:56:17.894Z,5.7
2023-03-22T15:57:05.295Z,5.7
2023-03-22T15:57:52.937Z,5.7
2023-03-22T15:58:40.348Z,5.7
2023-03-22T15:59:28.082Z,5.7
2023-03-22T16:00:15.717Z,5.7
2023-03-22T16:01:03.216Z,5.7
2023-03-22T16:01:50.674Z,5.7
2023-03-22T16:02:38.108Z,5.7
2023-03-22T16:03:25.594Z,5.7
2023-03-22T16:04:13.062Z,5.7
2023-03-22T16:05:00.465Z,5.7
2023-03-22T16:05:47.895Z,5.7
2023-03-22T16:06:35.340Z,5.7
2023-03-22T16:07:22.960Z,5.7
2023-03-22T16:08:10.458Z,5.7
2023-03-22T16:08:57.862Z,5.7
2023-03-22T16:09:45.274Z,5.7
2023-03-22T16:10:32.728Z,5.7
2023-03-22T16:11:20.180Z,5.7
2023-03-22T16:12:07.619Z,5.7
2023-03-22T16:12:55.067Z,5.7
2023-03-22T16:13:42.495Z,5.7
2023-03-22T16:14:29.901Z,5.7
2023-03-22T16:15:17.324Z,5.7
2023-03-22T16:16:04.746Z,5.7
2023-03-22T16:16:52.523Z,5.7
2023-03-22T16:17:40.456Z,5.7
2023-03-22T16:25:12.864Z,5.7
2023-03-22T16:32:45.329Z,5.8
2023-03-22T16:40:17.739Z,5.8
2023-03-22T16:47:50.347Z,5.8
2023-03-22T16:55:22.784Z,5.8
2023-03-22T17:02:55.237Z,5.8
2023-03-22T17:10:27.674Z,5.8
2023-03-22T17:18:00.127Z,5.8
2023-03-22T17:25:32.555Z,5.8
2023-03-22T17:33:07.584Z,5.5
2023-03-22T17:40:50.232Z,5.5
2023-03-22T17:48:24.585Z,5.5
2023-03-22T17:56:34.675Z,5.5
2023-03-22T18:03:39.376Z,5.5
2023-03-22T18:11:11.801Z,5.5
2023-03-22T18:18:44.292Z,5.5
2023-03-22T18:26:27.445Z,5.5
2023-03-22T18:33:59.088Z,5.7
2023-03-22T18:41:44.814Z,5.7
2023-03-22T18:49:13.909Z,5.7
2023-03-22T18:56:47.030Z,5.7
2023-03-22T19:04:19.458Z,5.7
2023-03-22T19:11:51.978Z,5.7
2023-03-22T19:19:24.406Z,5.7
2023-03-22T19:27:07.168Z,5.7
2023-03-22T19:34:39.244Z,6.0
2023-03-22T19:42:12.150Z,6.0
2023-03-22T19:49:44.565Z,6.0
2023-03-22T19:57:16.975Z,6.0
2023-03-22T20:04:49.471Z,6.0
2023-03-22T20:12:21.948Z,6.0
2023-03-22T20:19:54.511Z,6.0
2023-03-22T20:27:26.922Z,6.0
2023-03-22T20:34:59.329Z,5.9
2023-03-22T20:42:31.850Z,5.9
2023-03-22T20:50:04.355Z,5.9
2023-03-22T20:57:36.827Z,5.9
2023-03-22T21:05:09.411Z,5.9
2023-03-22T21:12:41.842Z,5.9
2023-03-22T21:20:18.177Z,5.9
2023-03-22T21:27:56.730Z,5.9
2023-03-22T21:35:29.193Z,5.4
2023-03-22T21:43:01.633Z,5.4
2023-03-22T21:50:34.134Z,5.4
2023-03-22T21:58:06.654Z,5.4
2023-03-22T22:05:39.604Z,5.4